Time;durP1;ratioP1;P1;durP2;ratioP2;P2;SDS_P1;SDS_P2;PMS_P1;PMS_P2;Temp;Humidity;BMP_temperature;BMP_pressure;BME280_temperature;BME280_humidity;BME280_pressure;Samples;Min_cycle;Max_cycle;Signal;HPM_P1;HPM_P2
2024/04/09 00:01:03;;;;;;;;;;;;;;;13.89;43.93;99995.19;5453931;26;19928;-80
2024/04/09 00:03:29;;;;;;;;;;;;;;;13.89;44.12;99989.88;5453907;26;19942;-80
2024/04/09 00:05:54;;;;;;;;;;;;;;;13.91;44.48;99985.19;5422087;26;19937;-80
2024/04/09 00:08:21;;;;;;;;;;;;;;;13.91;43.95;99990.50;5421237;26;19936;-80
2024/04/09 00:10:47;;;;;;;;;;;;;;;13.88;43.30;99980.28;5453901;26;20253;-80
2024/04/09 00:13:14;;;;;;;;;;;;;;;13.85;43.39;99975.34;5453376;26;19928;-80
2024/04/09 00:15:40;;;;;;;;;;;;;;;13.85;43.40;99973.50;5422047;26;20069;-80
2024/04/09 00:18:11;;;;;;;;;;;;;;;13.76;44.46;99966.69;5454182;26;19998;-80
2024/04/09 00:20:43;;;;;;;;;;;;;;;13.76;44.13;99965.84;5453874;26;19961;-80
2024/04/09 00:23:16;;;;;;;;;;;;;;;13.69;43.70;99965.78;5454308;26;19937;-80
2024/04/09 00:25:43;;;;;;;;;;;;;;;13.67;44.31;99960.66;5454024;26;20007;-80
2024/04/09 00:28:09;;;;;;;;;;;;;;;13.67;43.36;99959.84;5422130;26;19935;-80
2024/04/09 00:30:35;;;;;;;;;;;;;;;13.63;44.65;99962.06;5422091;26;19974;-80
2024/04/09 00:33:00;;;;;;;;;;;;;;;13.63;43.73;99959.41;5453213;26;19929;-80
2024/04/09 00:35:26;;;;;;;;;;;;;;;13.54;45.68;99962.34;5453364;26;20355;-80
2024/04/09 00:37:51;;;;;;;;;;;;;;;13.56;43.35;99949.72;5453380;26;19997;-79
2024/04/09 00:40:18;;;;;;;;;;;;;;;13.49;45.01;99954.94;5454105;26;19928;-80
2024/04/09 00:42:43;;;;;;;;;;;;;;;13.50;43.95;99956.59;5453258;26;19936;-80
2024/04/09 00:45:09;;;;;;;;;;;;;;;13.47;44.16;99962.28;5453478;26;19933;-80
2024/04/09 00:47:34;;;;;;;;;;;;;;;13.44;44.24;99957.34;5452886;26;19957;-80
2024/04/09 00:50:04;;;;;;;;;;;;;;;13.42;44.27;99958.53;5453320;26;20270;-80
2024/04/09 00:52:29;;;;;;;;;;;;;;;13.36;44.87;99954.78;5420986;26;19956;-80
2024/04/09 00:54:57;;;;;;;;;;;;;;;13.34;43.50;99954.94;5452942;26;19929;-80
2024/04/09 00:57:23;;;;;;;;;;;;;;;13.25;44.20;99956.06;5421156;26;19928;-80
2024/04/09 00:59:48;;;;;;;;;;;;;;;13.18;44.48;99952.50;5421441;26;19936;-80
2024/04/09 01:02:13;;;;;;;;;;;;;;;13.10;45.16;99955.22;5452966;26;19939;-80
2024/04/09 01:04:38;;;;;;;;;;;;;;;13.04;45.34;99946.19;5453176;26;19928;-80
2024/04/09 01:07:04;;;;;;;;;;;;;;;13.03;45.16;99947.19;5421232;26;19997;-80
2024/04/09 01:09:29;;;;;;;;;;;;;;;13.00;45.21;99938.78;5453131;26;19940;-80
2024/04/09 01:11:54;;;;;;;;;;;;;;;12.98;46.00;99944.28;5452172;26;19993;-80
2024/04/09 01:14:19;;;;;;;;;;;;;;;12.90;45.28;99943.53;5420677;26;19928;-80
2024/04/09 01:16:45;;;;;;;;;;;;;;;12.88;45.19;99935.78;5420702;26;19928;-80
2024/04/09 01:19:10;;;;;;;;;;;;;;;12.88;45.15;99933.13;5452360;26;20001;-80
2024/04/09 01:21:35;;;;;;;;;;;;;;;12.91;44.93;99935.41;5423440;26;19997;-80
2024/04/09 01:24:01;;;;;;;;;;;;;;;12.91;45.19;99931.94;5456168;26;19940;-80
2024/04/09 01:26:26;;;;;;;;;;;;;;;12.85;46.30;99940.63;5455965;26;20382;-80
2024/04/09 01:28:51;;;;;;;;;;;;;;;12.84;45.31;99931.03;5456096;26;19928;-80
2024/04/09 01:31:16;;;;;;;;;;;;;;;12.83;45.16;99938.16;5455610;26;19940;-80
2024/04/09 01:33:42;;;;;;;;;;;;;;;12.78;44.78;99939.72;5455854;26;19929;-80
2024/04/09 01:36:10;;;;;;;;;;;;;;;12.72;45.87;99930.66;5424201;26;20011;-80
2024/04/09 01:38:35;;;;;;;;;;;;;;;12.71;45.21;99929.84;5424226;26;20366;-80
2024/04/09 01:41:00;;;;;;;;;;;;;;;12.70;45.87;99954.69;5455990;26;19936;-80
2024/04/09 01:43:26;;;;;;;;;;;;;;;12.69;46.36;99934.50;5455836;26;19928;-80
2024/04/09 01:45:51;;;;;;;;;;;;;;;12.70;45.47;99933.50;5455941;26;19935;-80
2024/04/09 01:48:17;;;;;;;;;;;;;;;12.65;45.25;99930.56;5423832;26;19929;-80
2024/04/09 01:50:43;;;;;;;;;;;;;;;12.61;45.61;99931.91;5455891;26;20009;-80
2024/04/09 01:53:08;;;;;;;;;;;;;;;12.58;45.41;99942.88;5423963;26;19997;-80
2024/04/09 01:55:33;;;;;;;;;;;;;;;12.55;45.69;99934.47;5455624;26;19928;-80
2024/04/09 01:57:58;;;;;;;;;;;;;;;12.57;45.27;99935.91;5455733;26;20407;-80
2024/04/09 02:00:24;;;;;;;;;;;;;;;12.52;45.41;99943.59;5455489;26;19936;-80
2024/04/09 02:02:53;;;;;;;;;;;;;;;12.47;45.49;99935.38;5455506;26;19929;-80
2024/04/09 02:05:19;;;;;;;;;;;;;;;12.41;46.07;99931.59;5455891;26;20334;-80
2024/04/09 02:07:45;;;;;;;;;;;;;;;12.41;45.98;99928.13;5423625;26;20266;-80
2024/04/09 02:10:11;;;;;;;;;;;;;;;12.41;45.32;99931.59;5423741;26;19929;-80
2024/04/09 02:12:38;;;;;;;;;;;;;;;12.40;44.92;99931.78;5423591;26;19936;-80
2024/04/09 02:15:04;;;;;;;;;;;;;;;12.32;45.99;99929.22;5455237;26;19936;-80
2024/04/09 02:17:29;;;;;;;;;;;;;;;12.25;46.35;99930.94;5455417;26;19928;-80
2024/04/09 02:19:54;;;;;;;;;;;;;;;12.19;45.79;99942.25;5423253;26;19936;-80
2024/04/09 02:22:19;;;;;;;;;;;;;;;12.14;46.72;99948.06;5423425;26;20362;-80
2024/04/09 02:24:44;;;;;;;;;;;;;;;12.15;45.68;99943.59;5455233;26;19978;-80
2024/04/09 02:27:10;;;;;;;;;;;;;;;12.07;45.81;99941.84;5455231;26;19941;-80
2024/04/09 02:29:37;;;;;;;;;;;;;;;12.02;46.08;99942.38;5423354;26;19933;-80
2024/04/09 02:32:02;;;;;;;;;;;;;;;11.95;46.24;99949.38;5454602;26;19941;-80
2024/04/09 02:34:27;;;;;;;;;;;;;;;11.92;46.91;99944.44;5454994;26;19935;-80
2024/04/09 02:36:52;;;;;;;;;;;;;;;11.95;46.46;99946.72;5454966;26;19936;-80
2024/04/09 02:39:18;;;;;;;;;;;;;;;11.92;47.14;99946.25;5455206;26;20362;-79
2024/04/09 02:41:43;;;;;;;;;;;;;;;11.91;46.21;99940.16;5423123;26;19936;-80
2024/04/09 02:44:08;;;;;;;;;;;;;;;11.89;45.90;99938.66;5454750;26;19978;-80
2024/04/09 02:46:34;;;;;;;;;;;;;;;11.87;45.66;99946.75;5455364;26;19940;-80
2024/04/09 02:49:00;;;;;;;;;;;;;;;11.84;46.97;99941.81;5454539;26;19940;-80
2024/04/09 02:51:25;;;;;;;;;;;;;;;11.85;46.69;99937.34;5454608;26;19929;-80
2024/04/09 02:53:51;;;;;;;;;;;;;;;11.85;46.10;99940.81;5454455;26;19952;-80
2024/04/09 02:56:16;;;;;;;;;;;;;;;11.82;46.41;99941.19;5454403;26;19929;-80
2024/04/09 02:58:41;;;;;;;;;;;;;;;11.68;46.71;99942.72;5422876;26;20277;-80
2024/04/09 03:01:07;;;;;;;;;;;;;;;11.67;47.46;99943.72;5423162;26;19928;-80
2024/04/09 03:03:33;;;;;;;;;;;;;;;11.66;46.52;99942.09;5454621;26;19941;-80
2024/04/09 03:06:08;;;;;;;;;;;;;;;11.67;47.24;99942.91;5454789;26;20265;-80
2024/04/09 03:08:34;;;;;;;;;;;;;;;11.69;46.61;99940.91;5454618;26;19997;-80
2024/04/09 03:10:59;;;;;;;;;;;;;;;11.71;46.95;99950.31;5422744;26;20328;-80
2024/04/09 03:13:24;;;;;;;;;;;;;;;11.64;47.21;99946.72;5454707;26;19935;-80
2024/04/09 03:15:50;;;;;;;;;;;;;;;11.66;46.60;99949.19;5454565;26;20362;-80
2024/04/09 03:18:17;;;;;;;;;;;;;;;11.48;47.22;99941.53;5455155;26;19928;-80
2024/04/09 03:20:42;;;;;;;;;;;;;;;11.44;47.02;99950.81;5422800;26;19936;-80
2024/04/09 03:23:07;;;;;;;;;;;;;;;11.35;46.96;99947.38;5454654;26;19936;-80
2024/04/09 03:25:32;;;;;;;;;;;;;;;11.37;47.43;99950.69;5422615;26;19998;-80
2024/04/09 03:27:58;;;;;;;;;;;;;;;11.36;48.08;99946.38;5422866;26;19936;-80
2024/04/09 03:30:23;;;;;;;;;;;;;;;11.48;47.31;99949.47;5454702;26;20254;-80
2024/04/09 03:32:50;;;;;;;;;;;;;;;11.59;46.91;99951.72;5454356;26;20395;-80
2024/04/09 03:35:16;;;;;;;;;;;;;;;11.64;47.51;99953.84;5454413;26;20280;-80
2024/04/09 03:37:41;;;;;;;;;;;;;;;11.65;47.18;99955.47;5455106;26;19929;-80
2024/04/09 03:40:06;;;;;;;;;;;;;;;11.66;46.37;99954.47;5454711;26;19932;-80
2024/04/09 03:42:31;;;;;;;;;;;;;;;11.68;47.36;99955.13;5453657;26;19928;-79
2024/04/09 03:44:57;;;;;;;;;;;;;;;11.68;47.71;99955.94;5422411;26;20342;-80
2024/04/09 03:47:22;;;;;;;;;;;;;;;11.71;46.83;99962.72;5454791;26;19939;-80
2024/04/09 03:49:47;;;;;;;;;;;;;;;11.68;47.00;99963.88;5422493;26;19953;-80
2024/04/09 03:52:12;;;;;;;;;;;;;;;11.73;46.62;99960.72;5453814;26;19928;-80
2024/04/09 03:54:38;;;;;;;;;;;;;;;11.72;46.38;99961.72;5454159;26;19928;-80
2024/04/09 03:57:03;;;;;;;;;;;;;;;11.73;46.95;99961.53;5453597;26;20369;-80
2024/04/09 03:59:30;;;;;;;;;;;;;;;11.76;47.31;99968.31;5453763;26;19940;-80
2024/04/09 04:01:55;;;;;;;;;;;;;;;11.78;46.40;99963.69;5421896;26;20374;-80
2024/04/09 04:04:20;;;;;;;;;;;;;;;11.79;46.70;99970.63;5454251;26;19978;-80
2024/04/09 04:06:46;;;;;;;;;;;;;;;11.82;46.44;99972.94;5422090;26;20291;-80
2024/04/09 04:09:11;;;;;;;;;;;;;;;11.80;47.67;99974.91;5453812;26;19928;-80
2024/04/09 04:11:37;;;;;;;;;;;;;;;11.75;47.26;99977.25;5453705;26;19928;-80
2024/04/09 04:14:02;;;;;;;;;;;;;;;11.80;47.41;99987.31;5421667;26;19929;-80
2024/04/09 04:16:27;;;;;;;;;;;;;;;11.87;46.81;99994.38;5422101;26;19928;-80
2024/04/09 04:18:52;;;;;;;;;;;;;;;11.96;46.08;99987.25;5453728;26;19941;-80
2024/04/09 04:21:21;;;;;;;;;;;;;;;12.00;46.81;99986.72;5454148;26;19928;-80
2024/04/09 04:23:50;;;;;;;;;;;;;;;12.04;46.30;99982.72;5421915;26;19997;-80
2024/04/09 04:26:17;;;;;;;;;;;;;;;12.03;46.51;99989.00;5453811;26;20358;-80
2024/04/09 04:28:43;;;;;;;;;;;;;;;12.03;46.99;99989.00;5453470;26;19928;-80
2024/04/09 04:31:09;;;;;;;;;;;;;;;12.06;46.02;99986.03;5453592;26;19936;-80
2024/04/09 04:33:35;;;;;;;;;;;;;;;12.00;46.63;99986.72;5453389;26;19974;-80
2024/04/09 04:36:01;;;;;;;;;;;;;;;12.06;47.19;99982.53;5421789;26;19932;-80
2024/04/09 04:38:26;;;;;;;;;;;;;;;12.13;47.52;99983.47;5453533;26;19929;-80
2024/04/09 04:40:51;;;;;;;;;;;;;;;12.10;47.14;99983.84;5453808;26;19928;-80
2024/04/09 04:43:17;;;;;;;;;;;;;;;12.19;47.13;99987.25;5453251;26;19935;-80
2024/04/09 04:45:43;;;;;;;;;;;;;;;12.25;47.00;99990.00;5453496;26;19932;-80
2024/04/09 04:48:08;;;;;;;;;;;;;;;12.31;47.33;99991.13;5453248;26;19932;-80
2024/04/09 04:50:34;;;;;;;;;;;;;;;12.38;45.68;99989.41;5453180;26;19928;-80
2024/04/09 04:53:01;;;;;;;;;;;;;;;12.34;46.38;99990.75;5452874;26;19940;-80
2024/04/09 04:55:26;;;;;;;;;;;;;;;12.31;47.15;99989.28;5423398;26;20375;-80
2024/04/09 04:57:52;;;;;;;;;;;;;;;12.37;47.41;99991.22;5456720;26;19929;-80
2024/04/09 05:00:17;;;;;;;;;;;;;;;12.41;45.81;99997.00;5456539;26;19928;-80
2024/04/09 05:02:42;;;;;;;;;;;;;;;12.37;47.08;99991.22;5456265;26;19940;-80
2024/04/09 05:05:08;;;;;;;;;;;;;;;12.44;46.64;100001.09;5476036;26;19927;-80
2024/04/09 05:07:33;;;;;;;;;;;;;;;12.48;47.14;99997.91;5492880;26;19928;-80
2024/04/09 05:09:59;;;;;;;;;;;;;;;12.58;46.84;99995.84;5492681;26;20231;-80
2024/04/09 05:12:25;;;;;;;;;;;;;;;12.68;46.41;99991.13;5459871;26;19928;-80
2024/04/09 05:14:50;;;;;;;;;;;;;;;12.77;46.33;99996.34;5460008;26;19935;-80
2024/04/09 05:17:16;;;;;;;;;;;;;;;12.88;46.45;100002.03;5492388;26;19939;-80
2024/04/09 05:19:42;;;;;;;;;;;;;;;12.95;46.18;99999.47;5459896;26;19935;-80
2024/04/09 05:22:07;;;;;;;;;;;;;;;13.05;46.17;100000.03;5492336;26;20000;-80
2024/04/09 05:24:33;;;;;;;;;;;;;;;13.15;45.69;100000.56;5475528;26;19940;-80
2024/04/09 05:26:59;;;;;;;;;;;;;;;13.25;46.42;100000.31;5423989;26;19940;-80
2024/04/09 05:29:24;;;;;;;;;;;;;;;13.33;46.18;100003.69;5424082;26;19997;-80
2024/04/09 05:31:49;;;;;;;;;;;;;;;13.45;46.15;99995.31;5456052;26;19929;-80
2024/04/09 05:34:14;;;;;;;;;;;;;;;13.54;45.90;99994.19;5424065;26;19929;-79
2024/04/09 05:36:40;;;;;;;;;;;;;;;13.60;45.93;99988.13;5456108;26;20073;-79
2024/04/09 05:39:05;;;;;;;;;;;;;;;13.56;45.68;99986.88;5455503;26;19936;-80
2024/04/09 05:41:30;;;;;;;;;;;;;;;13.61;46.57;99987.13;5458224;26;19943;-80
2024/04/09 05:43:55;;;;;;;;;;;;;;;13.64;46.61;99994.72;5455454;26;20483;-80
2024/04/09 05:46:21;;;;;;;;;;;;;;;13.74;46.18;99989.94;5455699;26;19940;-79
2024/04/09 05:48:46;;;;;;;;;;;;;;;13.86;46.28;99996.38;5455927;26;19928;-80
2024/04/09 05:51:12;;;;;;;;;;;;;;;13.95;46.51;99991.78;5455961;26;19928;-80
2024/04/09 05:53:37;;;;;;;;;;;;;;;14.07;46.06;100000.88;5425621;26;19935;-80
2024/04/09 05:56:02;;;;;;;;;;;;;;;14.16;46.33;99998.97;5423987;26;20312;-80
2024/04/09 05:58:27;;;;;;;;;;;;;;;14.24;45.97;99999.66;5423586;26;19929;-80
2024/04/09 06:00:54;;;;;;;;;;;;;;;14.37;45.87;99993.63;5455451;26;19997;-79
2024/04/09 06:03:19;;;;;;;;;;;;;;;14.49;45.60;99988.66;5423634;26;19928;-80
2024/04/09 06:05:45;;;;;;;;;;;;;;;14.61;45.59;99992.41;5422534;26;20354;-80
2024/04/09 06:08:10;;;;;;;;;;;;;;;14.72;45.37;99991.06;5455298;26;19936;-79
2024/04/09 06:10:35;;;;;;;;;;;;;;;14.83;45.38;99986.03;5455397;26;19932;-80
2024/04/09 06:13:00;;;;;;;;;;;;;;;14.93;45.54;99981.22;5470133;26;19927;-80
2024/04/09 06:15:26;;;;;;;;;;;;;;;15.05;45.54;99986.81;5459428;26;19968;-79
2024/04/09 06:17:51;;;;;;;;;;;;;;;15.17;45.50;99979.09;5459293;26;19928;-80
2024/04/09 06:20:16;;;;;;;;;;;;;;;15.25;44.97;99979.75;5491387;26;20337;-80
2024/04/09 06:22:41;;;;;;;;;;;;;;;15.36;44.82;99980.19;5459485;26;19935;-80
2024/04/09 06:25:07;;;;;;;;;;;;;;;15.47;44.94;99980.44;5458949;26;19928;-80
2024/04/09 06:27:32;;;;;;;;;;;;;;;15.61;44.13;99988.53;5458750;26;19936;-80
2024/04/09 06:29:57;;;;;;;;;;;;;;;15.71;44.06;99987.16;5491125;26;19928;-80
2024/04/09 06:32:23;;;;;;;;;;;;;;;15.80;44.18;99985.94;5488610;26;19932;-80
2024/04/09 06:34:48;;;;;;;;;;;;;;;15.89;43.80;99991.91;5450160;26;19939;-80
2024/04/09 06:37:13;;;;;;;;;;;;;;;15.97;44.33;99990.88;5423952;26;19928;-81
2024/04/09 06:39:39;;;;;;;;;;;;;;;16.03;43.43;99984.75;5455106;26;20004;-80
2024/04/09 06:42:04;;;;;;;;;;;;;;;16.15;43.43;99991.13;5425050;26;20384;-80
2024/04/09 06:44:30;;;;;;;;;;;;;;;16.26;43.49;99989.69;5422975;26;19982;-80
2024/04/09 06:46:55;;;;;;;;;;;;;;;16.37;43.26;99989.13;5456839;26;20261;-80
2024/04/09 06:49:21;;;;;;;;;;;;;;;16.40;43.61;99989.53;5422601;26;19928;-79
2024/04/09 06:51:46;;;;;;;;;;;;;;;16.50;43.02;99989.94;5454564;26;19928;-80
2024/04/09 06:54:11;;;;;;;;;;;;;;;16.60;42.69;99991.38;5475881;26;19936;-80
2024/04/09 06:56:36;;;;;;;;;;;;;;;16.68;42.99;99994.69;5455879;26;19936;-80
2024/04/09 06:59:02;;;;;;;;;;;;;;;16.78;42.95;99991.59;5458544;26;19959;-79
2024/04/09 07:01:27;;;;;;;;;;;;;;;16.89;42.94;99988.28;5490853;26;20325;-80
2024/04/09 07:03:52;;;;;;;;;;;;;;;16.96;42.80;99993.59;5490334;26;19928;-80
2024/04/09 07:06:17;;;;;;;;;;;;;;;17.02;43.23;99998.94;5459278;26;20385;-80
2024/04/09 07:08:43;;;;;;;;;;;;;;;17.10;42.63;99997.91;5458454;26;19939;-80
2024/04/09 07:11:08;;;;;;;;;;;;;;;17.21;42.60;99999.13;5490820;26;19930;-80
2024/04/09 07:13:33;;;;;;;;;;;;;;;17.32;42.36;99993.13;5423993;26;19997;-80
2024/04/09 07:15:59;;;;;;;;;;;;;;;17.43;41.69;99995.13;5454087;26;19929;-80
2024/04/09 07:18:24;;;;;;;;;;;;;;;17.49;42.82;99991.63;5421283;26;19935;-80
2024/04/09 07:20:50;;;;;;;;;;;;;;;17.53;42.32;99987.50;5453247;26;19928;-79
2024/04/09 07:23:15;;;;;;;;;;;;;;;17.63;42.11;99995.03;5422105;26;20394;-80
2024/04/09 07:25:41;;;;;;;;;;;;;;;17.69;42.21;99989.72;5453511;26;19933;-80
2024/04/09 07:28:06;;;;;;;;;;;;;;;17.75;41.50;99988.84;5422184;26;19997;-81
2024/04/09 07:30:35;;;;;;;;;;;;;;;17.84;40.70;99986.78;5421955;26;20381;-79
2024/04/09 07:33:00;;;;;;;;;;;;;;;17.92;41.17;99985.72;5416937;26;19935;-79
2024/04/09 07:35:25;;;;;;;;;;;;;;;18.05;41.03;99993.63;5449067;26;19929;-80
2024/04/09 07:37:51;;;;;;;;;;;;;;;18.13;40.18;99988.03;5453235;26;20362;-79
2024/04/09 07:40:16;;;;;;;;;;;;;;;18.21;40.43;99974.41;5421849;26;19928;-79
2024/04/09 07:42:41;;;;;;;;;;;;;;;18.33;40.28;99978.00;5453608;26;19928;-78
2024/04/09 07:45:08;;;;;;;;;;;;;;;18.45;39.28;99988.00;5421506;26;20357;-78
2024/04/09 07:47:33;;;;;;;;;;;;;;;18.48;38.97;99979.53;5438597;26;19938;-78
2024/04/09 07:49:59;;;;;;;;;;;;;;;18.54;38.37;99974.13;5446284;26;19929;-79
2024/04/09 07:52:24;;;;;;;;;;;;;;;18.59;37.95;99968.16;5453380;26;19929;-79
2024/04/09 07:54:50;;;;;;;;;;;;;;;18.66;38.02;99972.44;5452990;26;19978;-80
2024/04/09 07:57:15;;;;;;;;;;;;;;;18.69;38.69;99968.50;5451565;26;20362;-79
2024/04/09 07:59:41;;;;;;;;;;;;;;;18.73;38.72;99956.31;5438986;26;19928;-78
2024/04/09 08:02:06;;;;;;;;;;;;;;;18.83;38.59;99956.63;5461635;26;19929;-79
2024/04/09 08:04:32;;;;;;;;;;;;;;;18.93;38.46;99956.13;5427478;26;20626;-79
2024/04/09 08:06:57;;;;;;;;;;;;;;;19.02;38.17;99949.44;5453290;26;19928;-79
2024/04/09 08:09:22;;;;;;;;;;;;;;;19.09;37.61;99946.69;5453152;26;19935;-79
2024/04/09 08:11:49;;;;;;;;;;;;;;;19.20;38.32;99948.59;5436589;26;19928;-79
2024/04/09 08:14:15;;;;;;;;;;;;;;;19.24;36.79;99937.22;5489278;26;19927;-80
2024/04/09 08:16:40;;;;;;;;;;;;;;;19.35;36.73;99943.72;5461104;26;19997;-79
2024/04/09 08:19:06;;;;;;;;;;;;;;;19.44;36.98;99938.84;5426523;26;20366;-79
2024/04/09 08:21:31;;;;;;;;;;;;;;;19.52;36.31;99942.06;5445656;26;19928;-79
2024/04/09 08:23:56;;;;;;;;;;;;;;;19.69;36.63;99928.84;5457152;26;20250;-79
2024/04/09 08:26:23;;;;;;;;;;;;;;;19.85;35.80;99930.06;5451917;26;20331;-79
2024/04/09 08:28:49;;;;;;;;;;;;;;;19.93;35.89;99933.25;5466654;26;20251;-79
2024/04/09 08:31:14;;;;;;;;;;;;;;;20.08;35.45;99918.59;5472847;26;19935;-79
2024/04/09 08:33:39;;;;;;;;;;;;;;;20.10;34.89;99930.75;5436012;26;20380;-79
2024/04/09 08:36:06;;;;;;;;;;;;;;;20.23;33.21;99917.13;5452598;26;20385;-79
2024/04/09 08:38:31;;;;;;;;;;;;;;;20.37;32.28;99923.06;5478343;26;19928;-79
2024/04/09 08:40:56;;;;;;;;;;;;;;;20.34;33.99;99920.03;5490320;26;19953;-79
2024/04/09 08:43:23;;;;;;;;;;;;;;;20.44;33.07;99918.44;5492292;26;19928;-79
2024/04/09 08:45:49;;;;;;;;;;;;;;;20.62;34.39;99914.81;5458856;26;19928;-79
2024/04/09 08:48:15;;;;;;;;;;;;;;;20.89;33.26;99912.47;5480348;26;19928;-79
2024/04/09 08:50:46;;;;;;;;;;;;;;;21.12;33.27;99916.97;5441804;26;20669;-79
2024/04/09 08:53:12;;;;;;;;;;;;;;;21.31;34.07;99913.09;5454888;26;19932;-79
2024/04/09 08:55:38;;;;;;;;;;;;;;;21.45;31.68;99908.25;5459913;26;20265;-77
2024/04/09 08:58:04;;;;;;;;;;;;;;;21.60;32.89;99905.88;5471376;26;20269;-79
2024/04/09 09:00:29;;;;;;;;;;;;;;;21.80;32.66;99908.09;5466452;26;19960;-79
2024/04/09 09:02:55;;;;;;;;;;;;;;;22.04;32.24;99903.41;5439482;26;19939;-78
2024/04/09 09:05:23;;;;;;;;;;;;;;;22.11;31.41;99894.13;5456502;26;19944;-79
2024/04/09 09:07:58;;;;;;;;;;;;;;;22.34;31.37;99900.44;5388217;26;19933;-78
2024/04/09 09:10:23;;;;;;;;;;;;;;;22.11;30.83;99832.28;5449202;26;20005;-77
2024/04/09 09:12:56;;;;;;;;;;;;;;;22.73;30.60;99891.28;5428032;26;19928;-77
2024/04/09 09:15:22;;;;;;;;;;;;;;;22.87;30.19;99894.47;5458062;26;19935;-79
2024/04/09 09:17:47;;;;;;;;;;;;;;;23.00;28.87;99898.66;5456728;26;19928;-79
2024/04/09 09:20:16;;;;;;;;;;;;;;;23.10;29.34;99894.25;5455877;26;19943;-78
2024/04/09 09:22:45;;;;;;;;;;;;;;;23.07;29.20;99885.84;5453689;26;19932;-78
2024/04/09 09:25:25;;;;;;;;;;;;;;;23.30;30.55;99896.34;5423223;26;19935;-80
2024/04/09 09:28:09;;;;;;;;;;;;;;;23.50;29.41;99890.38;5455490;26;19964;-78
2024/04/09 09:30:39;;;;;;;;;;;;;;;23.51;30.02;99883.91;5422961;26;19936;-78
2024/04/09 09:33:10;;;;;;;;;;;;;;;23.69;28.29;99882.75;5453738;26;19935;-79
2024/04/09 09:35:35;;;;;;;;;;;;;;;23.75;29.08;99881.72;5454486;26;19940;-79
2024/04/09 09:38:01;;;;;;;;;;;;;;;23.97;29.11;99882.50;5423064;26;19978;-79
2024/04/09 09:40:28;;;;;;;;;;;;;;;24.13;30.06;99877.22;5465829;26;19928;-79
2024/04/09 09:42:54;;;;;;;;;;;;;;;24.29;26.99;99874.38;5477852;26;19952;-79
2024/04/09 09:45:20;;;;;;;;;;;;;;;24.43;28.25;99872.03;5454101;26;19929;-78
2024/04/09 09:47:45;;;;;;;;;;;;;;;24.60;29.04;99870.00;5488168;26;20291;-78
2024/04/09 09:50:11;;;;;;;;;;;;;;;24.71;30.01;99874.38;5452047;26;19928;-78
2024/04/09 09:52:39;;;;;;;;;;;;;;;24.76;29.28;99867.38;5431911;26;20281;-79
2024/04/09 09:55:05;;;;;;;;;;;;;;;24.93;27.63;99866.09;5442091;26;19944;-79
2024/04/09 09:57:32;;;;;;;;;;;;;;;25.15;27.29;99860.53;5419213;26;19998;-78
2024/04/09 10:00:00;;;;;;;;;;;;;;;25.33;27.10;99848.44;5387743;26;19940;-79
2024/04/09 10:02:28;;;;;;;;;;;;;;;25.52;27.62;99857.66;5381864;26;19995;-79
2024/04/09 10:04:55;;;;;;;;;;;;;;;25.39;26.15;99844.66;5387505;26;19956;-79
2024/04/09 10:07:21;;;;;;;;;;;;;;;25.58;25.47;99847.66;5418861;26;19937;-79
2024/04/09 10:09:50;;;;;;;;;;;;;;;25.59;25.01;99846.59;5418893;26;19937;-79
2024/04/09 10:12:18;;;;;;;;;;;;;;;25.69;27.51;99846.63;5418378;26;20443;-79
2024/04/09 10:14:44;;;;;;;;;;;;;;;25.94;26.42;99840.41;5383377;26;19937;-79
2024/04/09 10:17:12;;;;;;;;;;;;;;;26.12;27.42;99847.16;5383136;26;19941;-78
2024/04/09 10:19:37;;;;;;;;;;;;;;;26.22;24.86;99849.84;5383162;26;19936;-79
2024/04/09 10:22:03;;;;;;;;;;;;;;;26.30;24.34;99841.19;5351902;26;19941;-78
2024/04/09 10:24:29;;;;;;;;;;;;;;;26.45;24.90;99851.19;5381162;26;19929;-78
2024/04/09 10:26:54;;;;;;;;;;;;;;;26.55;23.58;99841.13;5372454;26;19958;-78
2024/04/09 10:29:21;;;;;;;;;;;;;;;26.65;23.57;99840.28;5352247;26;19929;-79
2024/04/09 10:31:49;;;;;;;;;;;;;;;26.60;23.09;99835.72;5423433;26;19929;-79
2024/04/09 10:34:24;;;;;;;;;;;;;;;26.80;26.10;99840.25;5408327;26;19937;-78
2024/04/09 10:36:50;;;;;;;;;;;;;;;26.95;23.85;99830.44;5381161;26;19936;-78
2024/04/09 10:39:16;;;;;;;;;;;;;;;27.16;24.45;99816.53;5382943;26;20287;-79
2024/04/09 10:41:41;;;;;;;;;;;;;;;27.33;25.55;99816.13;5399438;26;19929;-79
2024/04/09 10:44:09;;;;;;;;;;;;;;;27.41;24.98;99818.25;5422226;26;19935;-76
2024/04/09 10:46:34;;;;;;;;;;;;;;;27.49;24.13;99814.94;5454348;26;20266;-79
2024/04/09 10:48:59;;;;;;;;;;;;;;;27.59;22.99;99816.78;5394572;26;19929;-77
2024/04/09 10:51:24;;;;;;;;;;;;;;;27.74;22.06;99818.59;5407890;26;19997;-80
2024/04/09 10:53:50;;;;;;;;;;;;;;;27.80;22.96;99809.31;5386589;26;19957;-78
2024/04/09 10:56:15;;;;;;;;;;;;;;;28.00;24.27;99811.03;5410069;26;19941;-79
2024/04/09 10:58:40;;;;;;;;;;;;;;;28.17;23.82;99808.69;5361107;26;20057;-79
2024/04/09 11:01:06;;;;;;;;;;;;;;;28.23;22.18;99807.56;5415919;26;19937;-79
2024/04/09 11:03:32;;;;;;;;;;;;;;;28.33;21.74;99804.75;5379193;26;19929;-79
2024/04/09 11:05:58;;;;;;;;;;;;;;;28.42;22.24;99792.16;5414260;26;19929;-78
2024/04/09 11:08:30;;;;;;;;;;;;;;;28.57;21.56;99793.06;5419786;26;19937;-78
2024/04/09 11:10:56;;;;;;;;;;;;;;;27.98;22.98;99720.94;5418482;26;19929;-78
2024/04/09 11:13:22;;;;;;;;;;;;;;;28.61;20.30;99789.50;5408704;26;19936;-77
2024/04/09 11:15:47;;;;;;;;;;;;;;;28.63;23.59;99790.00;5383264;26;19940;-79
2024/04/09 11:18:19;;;;;;;;;;;;;;;28.60;22.51;99782.44;5352415;26;19929;-78
2024/04/09 11:20:50;;;;;;;;;;;;;;;28.71;22.01;99783.13;5353874;26;20367;-79
2024/04/09 11:23:16;;;;;;;;;;;;;;;28.66;22.55;99777.75;5380825;26;20262;-79
2024/04/09 11:25:41;;;;;;;;;;;;;;;28.74;22.41;99775.19;5392709;26;20353;-79
2024/04/09 11:28:06;;;;;;;;;;;;;;;28.83;22.39;99782.69;5425163;26;19936;-78
2024/04/09 11:30:35;;;;;;;;;;;;;;;28.73;21.57;99772.75;5417586;26;19936;-77
2024/04/09 11:33:02;;;;;;;;;;;;;;;28.72;24.17;99769.25;5386168;26;20034;-77
2024/04/09 11:35:28;;;;;;;;;;;;;;;28.75;21.04;99767.84;5417476;26;20391;-78
2024/04/09 11:37:57;;;;;;;;;;;;;;;28.87;22.09;99775.59;5386261;26;19998;-79
2024/04/09 11:40:26;;;;;;;;;;;;;;;29.04;22.81;99765.03;5383733;26;19929;-78
2024/04/09 11:42:52;;;;;;;;;;;;;;;29.02;21.19;99757.19;5407769;26;20300;-78
2024/04/09 11:45:24;;;;;;;;;;;;;;;29.16;21.89;99753.72;5417193;26;19937;-78
2024/04/09 11:47:50;;;;;;;;;;;;;;;29.36;21.62;99746.03;5399040;26;20003;-77
2024/04/09 11:50:16;;;;;;;;;;;;;;;29.39;21.85;99742.72;5382103;26;20332;-79
2024/04/09 11:52:41;;;;;;;;;;;;;;;29.32;22.14;99734.13;5381455;26;19954;-77
2024/04/09 11:55:08;;;;;;;;;;;;;;;29.39;20.76;99733.75;5380237;26;19933;-77
2024/04/09 11:57:33;;;;;;;;;;;;;;;29.32;23.12;99722.44;5381201;26;19944;-79
2024/04/09 11:59:59;;;;;;;;;;;;;;;29.39;20.29;99726.41;5381825;26;19929;-79
2024/04/09 12:02:24;;;;;;;;;;;;;;;29.47;21.66;99718.69;5414652;26;19935;-79
2024/04/09 12:04:49;;;;;;;;;;;;;;;29.63;21.48;99718.13;5384994;26;19935;-79
2024/04/09 12:07:15;;;;;;;;;;;;;;;29.76;21.54;99721.19;5390580;26;20049;-78
2024/04/09 12:09:40;;;;;;;;;;;;;;;29.79;20.70;99710.53;5381430;26;19936;-77
2024/04/09 12:12:08;;;;;;;;;;;;;;;29.71;20.30;99706.56;5350430;26;19999;-79
2024/04/09 12:14:37;;;;;;;;;;;;;;;29.65;20.65;99709.66;5380890;26;21941;-77
2024/04/09 12:17:06;;;;;;;;;;;;;;;29.58;23.25;99707.34;5387210;26;19940;-79
2024/04/09 12:19:32;;;;;;;;;;;;;;;29.55;21.88;99705.22;5383525;26;19940;-79
2024/04/09 12:21:57;;;;;;;;;;;;;;;29.39;20.47;99710.09;5400678;26;19930;-78
2024/04/09 12:24:24;;;;;;;;;;;;;;;29.36;21.19;99696.28;5397514;26;19929;-79
2024/04/09 12:26:50;;;;;;;;;;;;;;;29.24;21.46;99693.22;5416723;26;20234;-78
2024/04/09 12:29:15;;;;;;;;;;;;;;;29.10;22.66;99687.72;5385427;26;20402;-79
2024/04/09 12:31:41;;;;;;;;;;;;;;;29.10;21.15;99680.38;5385000;26;19936;-79
2024/04/09 12:34:06;;;;;;;;;;;;;;;29.14;20.79;99690.66;5413001;26;20313;-79
2024/04/09 12:36:32;;;;;;;;;;;;;;;29.06;21.78;99690.25;5393532;26;20361;-78
2024/04/09 12:38:57;;;;;;;;;;;;;;;28.96;21.16;99684.94;5409664;26;19941;-77